sensor_id;sensor_type;location;lat;lon;timestamp;pressure;altitude;pressure_sealevel;temperature;humidity
68941;BME280;55982;51.476;7.552;2023-01-27T00:00:19;100443.25;;;2.06;100.00
68941;BME280;55982;51.476;7.552;2023-01-27T00:02:44;100443.31;;;2.12;100.00
68941;BME280;55982;51.476;7.552;2023-01-27T00:05:12;100440.72;;;2.09;100.00
68941;BME280;55982;51.476;7.552;2023-01-27T00:07:38;100437.25;;;2.07;100.00
68941;BME280;55982;51.476;7.552;2023-01-27T00:10:04;100444.19;;;2.15;100.00
68941;BME280;55982;51.476;7.552;2023-01-27T00:12:30;100445.94;;;2.15;100.00
68941;BME280;55982;51.476;7.552;2023-01-27T00:15:14;100438.16;;;2.12;100.00
68941;BME280;55982;51.476;7.552;2023-01-27T00:17:40;100440.78;;;2.13;100.00
68941;BME280;55982;51.476;7.552;2023-01-27T00:20:07;100448.53;;;2.15;100.00
68941;BME280;55982;51.476;7.552;2023-01-27T00:22:33;100444.25;;;2.18;100.00
68941;BME280;55982;51.476;7.552;2023-01-27T00:25:17;100446.81;;;2.17;100.00
68941;BME280;55982;51.476;7.552;2023-01-27T00:27:43;100444.28;;;2.21;100.00
68941;BME280;55982;51.476;7.552;2023-01-27T00:30:09;100438.28;;;2.24;100.00
68941;BME280;55982;51.476;7.552;2023-01-27T00:32:35;100441.66;;;2.17;100.00
68941;BME280;55982;51.476;7.552;2023-01-27T00:35:19;100438.22;;;2.19;100.00
68941;BME280;55982;51.476;7.552;2023-01-27T00:37:45;100443.44;;;2.21;100.00
68941;BME280;55982;51.476;7.552;2023-01-27T00:40:13;100441.75;;;2.26;100.00
68941;BME280;55982;51.476;7.552;2023-01-27T00:42:38;100441.81;;;2.33;100.00
68941;BME280;55982;51.476;7.552;2023-01-27T00:45:05;100452.97;;;2.31;100.00
68941;BME280;55982;51.476;7.552;2023-01-27T00:47:49;100453.91;;;2.36;100.00
68941;BME280;55982;51.476;7.552;2023-01-27T00:50:14;100454.75;;;2.35;100.00
68941;BME280;55982;51.476;7.552;2023-01-27T00:52:41;100459.94;;;2.38;100.00
68941;BME280;55982;51.476;7.552;2023-01-27T00:55:07;100451.31;;;2.36;100.00
68941;BME280;55982;51.476;7.552;2023-01-27T00:57:33;100471.00;;;2.25;100.00
68941;BME280;55982;51.476;7.552;2023-01-27T00:59:58;100462.38;;;2.23;100.00
68941;BME280;55982;51.476;7.552;2023-01-27T01:02:23;100463.19;;;2.19;100.00
68941;BME280;55982;51.476;7.552;2023-01-27T01:04:49;100462.25;;;2.14;100.00
68941;BME280;55982;51.476;7.552;2023-01-27T01:07:14;100475.06;;;2.06;100.00
68941;BME280;55982;51.476;7.552;2023-01-27T01:09:40;100467.31;;;2.03;100.00
68941;BME280;55982;51.476;7.552;2023-01-27T01:12:05;100470.72;;;2.01;100.00
68941;BME280;55982;51.476;7.552;2023-01-27T01:14:30;100463.78;;;1.97;100.00
68941;BME280;55982;51.476;7.552;2023-01-27T01:16:56;100468.13;;;2.01;100.00
68941;BME280;55982;51.476;7.552;2023-01-27T01:19:22;100471.50;;;1.95;100.00
68941;BME280;55982;51.476;7.552;2023-01-27T01:21:48;100471.53;;;1.97;100.00
68941;BME280;55982;51.476;7.552;2023-01-27T01:24:14;100477.56;;;1.99;100.00
68941;BME280;55982;51.476;7.552;2023-01-27T01:26:39;100477.56;;;1.96;100.00
68941;BME280;55982;51.476;7.552;2023-01-27T01:29:04;100472.34;;;1.93;100.00
68941;BME280;55982;51.476;7.552;2023-01-27T01:31:30;100476.59;;;1.89;100.00
68941;BME280;55982;51.476;7.552;2023-01-27T01:33:55;100480.94;;;1.90;100.00
68941;BME280;55982;51.476;7.552;2023-01-27T01:36:20;100492.06;;;1.88;100.00
68941;BME280;55982;51.476;7.552;2023-01-27T01:38:46;100499.81;;;1.88;100.00
68941;BME280;55982;51.476;7.552;2023-01-27T01:41:15;100486.03;;;1.85;100.00
68941;BME280;55982;51.476;7.552;2023-01-27T01:43:41;100486.09;;;1.92;100.00
68941;BME280;55982;51.476;7.552;2023-01-27T01:46:09;100496.34;;;1.88;100.00
68941;BME280;55982;51.476;7.552;2023-01-27T01:48:47;100496.34;;;1.85;100.00
68941;BME280;55982;51.476;7.552;2023-01-27T01:51:37;100475.66;;;1.82;100.00
68941;BME280;55982;51.476;7.552;2023-01-27T01:54:30;100489.38;;;1.78;100.00
68941;BME280;55982;51.476;7.552;2023-01-27T02:02:37;100479.00;;;1.75;100.00
68941;BME280;55982;51.476;7.552;2023-01-27T02:05:15;100475.53;;;1.73;100.00
68941;BME280;55982;51.476;7.552;2023-01-27T02:07:55;100483.25;;;1.70;100.00
68941;BME280;55982;51.476;7.552;2023-01-27T02:10:21;100488.41;;;1.70;100.00
68941;BME280;55982;51.476;7.552;2023-01-27T02:12:47;100483.28;;;1.75;100.00
68941;BME280;55982;51.476;7.552;2023-01-27T02:15:12;100484.16;;;1.74;100.00
68941;BME280;55982;51.476;7.552;2023-01-27T02:17:38;100470.34;;;1.70;100.00
68941;BME280;55982;51.476;7.552;2023-01-27T02:25:57;100469.56;;;1.76;100.00
68941;BME280;55982;51.476;7.552;2023-01-27T02:28:28;100474.72;;;1.74;100.00
68941;BME280;55982;51.476;7.552;2023-01-27T02:30:55;100484.28;;;1.84;100.00
68941;BME280;55982;51.476;7.552;2023-01-27T02:33:20;100476.50;;;1.80;100.00
68941;BME280;55982;51.476;7.552;2023-01-27T02:38:19;100486.81;;;1.80;100.00
68941;BME280;55982;51.476;7.552;2023-01-27T02:40:47;100483.34;;;1.79;100.00
68941;BME280;55982;51.476;7.552;2023-01-27T02:43:15;100486.84;;;1.83;100.00
68941;BME280;55982;51.476;7.552;2023-01-27T02:45:40;100485.09;;;1.80;100.00
68941;BME280;55982;51.476;7.552;2023-01-27T02:48:06;100489.41;;;1.81;100.00
68941;BME280;55982;51.476;7.552;2023-01-27T02:50:31;100482.47;;;1.79;100.00
68941;BME280;55982;51.476;7.552;2023-01-27T02:52:57;100485.94;;;1.79;100.00
68941;BME280;55982;51.476;7.552;2023-01-27T02:55:22;100479.09;;;1.81;100.00
68941;BME280;55982;51.476;7.552;2023-01-27T02:57:48;100482.56;;;1.83;100.00
68941;BME280;55982;51.476;7.552;2023-01-27T03:00:13;100485.97;;;1.82;100.00
68941;BME280;55982;51.476;7.552;2023-01-27T03:02:38;100492.06;;;1.88;100.00
68941;BME280;55982;51.476;7.552;2023-01-27T03:05:05;100494.66;;;1.88;100.00
68941;BME280;55982;51.476;7.552;2023-01-27T03:07:31;100477.47;;;1.90;100.00
68941;BME280;55982;51.476;7.552;2023-01-27T03:09:56;100484.28;;;1.84;100.00
68941;BME280;55982;51.476;7.552;2023-01-27T03:12:21;100473.06;;;1.81;100.00
68941;BME280;55982;51.476;7.552;2023-01-27T03:14:48;100475.66;;;1.82;100.00
68941;BME280;55982;51.476;7.552;2023-01-27T03:17:33;100477.41;;;1.83;100.00
68941;BME280;55982;51.476;7.552;2023-01-27T03:20:17;100478.28;;;1.87;100.00
68941;BME280;55982;51.476;7.552;2023-01-27T03:22:43;100480.88;;;1.88;100.00
68941;BME280;55982;51.476;7.552;2023-01-27T03:25:08;100476.59;;;1.89;100.00
68941;BME280;55982;51.476;7.552;2023-01-27T03:27:34;100486.09;;;1.92;100.00
68941;BME280;55982;51.476;7.552;2023-01-27T03:30:00;100477.50;;;1.93;100.00
68941;BME280;55982;51.476;7.552;2023-01-27T03:32:27;100479.25;;;1.94;100.00
68941;BME280;55982;51.476;7.552;2023-01-27T03:34:54;100484.34;;;1.91;100.00
68941;BME280;55982;51.476;7.552;2023-01-27T03:37:25;100479.28;;;1.97;100.00
68941;BME280;55982;51.476;7.552;2023-01-27T03:40:11;100477.56;;;1.99;100.00
68941;BME280;55982;51.476;7.552;2023-01-27T03:42:56;100480.97;;;1.95;100.00
68941;BME280;55982;51.476;7.552;2023-01-27T03:45:43;100485.25;;;1.94;100.00
68941;BME280;55982;51.476;7.552;2023-01-27T03:48:28;100484.44;;;1.97;100.00
68941;BME280;55982;51.476;7.552;2023-01-27T03:50:57;100486.19;;;1.98;100.00
68941;BME280;55982;51.476;7.552;2023-01-27T03:53:22;100488.69;;;1.95;100.00
68941;BME280;55982;51.476;7.552;2023-01-27T03:55:47;100481.00;;;1.98;100.00
68941;BME280;55982;51.476;7.552;2023-01-27T03:58:25;100487.06;;;2.00;100.00
68941;BME280;55982;51.476;7.552;2023-01-27T04:00:53;100490.44;;;1.96;100.00
68941;BME280;55982;51.476;7.552;2023-01-27T04:03:20;100486.19;;;2.01;100.00
68941;BME280;55982;51.476;7.552;2023-01-27T04:06:09;100499.97;;;2.00;100.00
68941;BME280;55982;51.476;7.552;2023-01-27T04:08:56;100491.34;;;1.98;100.00
68941;BME280;55982;51.476;7.552;2023-01-27T04:11:21;100486.19;;;1.98;100.00
68941;BME280;55982;51.476;7.552;2023-01-27T04:14:07;100482.72;;;1.99;100.00
68941;BME280;55982;51.476;7.552;2023-01-27T04:16:34;100483.59;;;1.98;100.00
68941;BME280;55982;51.476;7.552;2023-01-27T04:19:02;100486.19;;;2.01;100.00
68941;BME280;55982;51.476;7.552;2023-01-27T04:21:28;100491.41;;;2.04;100.00
68941;BME280;55982;51.476;7.552;2023-01-27T04:23:53;100487.09;;;2.06;100.00
68941;BME280;55982;51.476;7.552;2023-01-27T04:26:19;100491.44;;;2.07;100.00
68941;BME280;55982;51.476;7.552;2023-01-27T04:28:45;100496.56;;;2.04;100.00
68941;BME280;55982;51.476;7.552;2023-01-27T04:31:11;100498.28;;;2.03;100.00
68941;BME280;55982;51.476;7.552;2023-01-27T04:33:36;100498.28;;;2.05;100.00
68941;BME280;55982;51.476;7.552;2023-01-27T04:36:02;100496.56;;;2.04;100.00
68941;BME280;55982;51.476;7.552;2023-01-27T04:38:27;100506.94;;;2.10;100.00
68941;BME280;55982;51.476;7.552;2023-01-27T04:40:52;100496.63;;;2.10;100.00
68941;BME280;55982;51.476;7.552;2023-01-27T04:43:18;100489.75;;;2.12;100.00
68941;BME280;55982;51.476;7.552;2023-01-27T04:45:43;100506.13;;;2.14;100.00
68941;BME280;55982;51.476;7.552;2023-01-27T04:48:08;100501.84;;;2.16;100.00
68941;BME280;55982;51.476;7.552;2023-01-27T04:50:34;100507.00;;;2.16;100.00
68941;BME280;55982;51.476;7.552;2023-01-27T04:52:59;100507.00;;;2.16;100.00
68941;BME280;55982;51.476;7.552;2023-01-27T04:55:25;100508.75;;;2.17;100.00
68941;BME280;55982;51.476;7.552;2023-01-27T04:57:50;100508.78;;;2.20;100.00
68941;BME280;55982;51.476;7.552;2023-01-27T05:00:16;100508.78;;;2.20;100.00
68941;BME280;55982;51.476;7.552;2023-01-27T05:02:42;100517.41;;;2.22;100.00
68941;BME280;55982;51.476;7.552;2023-01-27T05:05:08;100520.00;;;2.22;100.00
68941;BME280;55982;51.476;7.552;2023-01-27T05:07:34;100514.81;;;2.19;100.00
68941;BME280;55982;51.476;7.552;2023-01-27T05:09:59;100522.63;;;2.25;100.00
68941;BME280;55982;51.476;7.552;2023-01-27T05:12:24;100520.03;;;2.25;100.00
68941;BME280;55982;51.476;7.552;2023-01-27T05:14:51;100520.03;;;2.25;100.00
68941;BME280;55982;51.476;7.552;2023-01-27T05:17:16;100530.38;;;2.25;100.00
68941;BME280;55982;51.476;7.552;2023-01-27T05:19:42;100531.19;;;2.24;100.00
68941;BME280;55982;51.476;7.552;2023-01-27T05:22:07;100535.53;;;2.26;100.00
68941;BME280;55982;51.476;7.552;2023-01-27T05:24:35;100524.38;;;2.29;100.00
68941;BME280;55982;51.476;7.552;2023-01-27T05:27:01;100533.84;;;2.30;100.00
68941;BME280;55982;51.476;7.552;2023-01-27T05:29:26;100532.97;;;2.28;100.00
68941;BME280;55982;51.476;7.552;2023-01-27T05:31:51;100529.53;;;2.29;100.00
68941;BME280;55982;51.476;7.552;2023-01-27T05:34:17;100527.84;;;2.31;100.00
68941;BME280;55982;51.476;7.552;2023-01-27T05:36:42;100534.75;;;2.32;100.00
68941;BME280;55982;51.476;7.552;2023-01-27T05:39:09;100545.09;;;2.35;100.00
68941;BME280;55982;51.476;7.552;2023-01-27T05:41:35;100545.09;;;2.35;100.00
68941;BME280;55982;51.476;7.552;2023-01-27T05:44:01;100543.38;;;2.37;100.00
68941;BME280;55982;51.476;7.552;2023-01-27T05:46:28;100547.66;;;2.33;100.00
68941;BME280;55982;51.476;7.552;2023-01-27T05:48:57;100545.97;;;2.34;100.00
68941;BME280;55982;51.476;7.552;2023-01-27T05:51:24;100546.78;;;2.33;100.00
68941;BME280;55982;51.476;7.552;2023-01-27T05:53:51;100545.16;;;2.38;100.00
68941;BME280;55982;51.476;7.552;2023-01-27T05:56:18;100547.72;;;2.39;100.00
68941;BME280;55982;51.476;7.552;2023-01-27T05:58:44;100553.72;;;2.37;100.00
68941;BME280;55982;51.476;7.552;2023-01-27T06:01:21;100552.06;;;2.42;100.00
68941;BME280;55982;51.476;7.552;2023-01-27T06:03:47;100553.78;;;2.40;100.00
68941;BME280;55982;51.476;7.552;2023-01-27T06:06:15;100551.19;;;2.41;100.00
68941;BME280;55982;51.476;7.552;2023-01-27T06:08:41;100552.00;;;2.36;100.00
68941;BME280;55982;51.476;7.552;2023-01-27T06:11:07;100547.72;;;2.38;100.00
68941;BME280;55982;51.476;7.552;2023-01-27T06:13:33;100548.56;;;2.37;100.00
68941;BME280;55982;51.476;7.552;2023-01-27T06:16:05;100553.78;;;2.43;100.00
68941;BME280;55982;51.476;7.552;2023-01-27T06:18:32;100548.63;;;2.41;100.00
68941;BME280;55982;51.476;7.552;2023-01-27T06:20:58;100553.84;;;2.46;100.00
68941;BME280;55982;51.476;7.552;2023-01-27T06:23:24;100559.00;;;2.46;100.00
68941;BME280;55982;51.476;7.552;2023-01-27T06:25:51;100568.47;;;2.48;100.00
68941;BME280;55982;51.476;7.552;2023-01-27T06:28:17;100558.97;;;2.43;100.00
68941;BME280;55982;51.476;7.552;2023-01-27T06:30:42;100559.00;;;2.46;100.00
68941;BME280;55982;51.476;7.552;2023-01-27T06:33:09;100562.44;;;2.45;100.00
68941;BME280;55982;51.476;7.552;2023-01-27T06:35:36;100562.44;;;2.48;100.00
68941;BME280;55982;51.476;7.552;2023-01-27T06:38:03;100570.25;;;2.51;100.00
68941;BME280;55982;51.476;7.552;2023-01-27T06:40:30;100570.25;;;2.54;100.00
68941;BME280;55982;51.476;7.552;2023-01-27T06:42:57;100580.59;;;2.54;100.00
68941;BME280;55982;51.476;7.552;2023-01-27T06:45:22;100574.53;;;2.52;100.00
68941;BME280;55982;51.476;7.552;2023-01-27T06:47:59;100578.06;;;2.57;100.00
68941;BME280;55982;51.476;7.552;2023-01-27T06:50:27;100581.47;;;2.53;100.00
68941;BME280;55982;51.476;7.552;2023-01-27T06:52:58;100584.09;;;2.57;100.00
68941;BME280;55982;51.476;7.552;2023-01-27T06:55:24;100590.00;;;2.49;100.00
68941;BME280;55982;51.476;7.552;2023-01-27T06:57:49;100596.06;;;2.52;100.00
68941;BME280;55982;51.476;7.552;2023-01-27T07:00:16;100588.31;;;2.51;100.00
68941;BME280;55982;51.476;7.552;2023-01-27T07:02:42;100598.66;;;2.51;100.00
68941;BME280;55982;51.476;7.552;2023-01-27T07:05:08;100597.75;;;2.49;100.00
68941;BME280;55982;51.476;7.552;2023-01-27T07:07:34;100600.38;;;2.52;100.00
68941;BME280;55982;51.476;7.552;2023-01-27T07:10:00;100598.66;;;2.54;100.00
68941;BME280;55982;51.476;7.552;2023-01-27T07:12:25;100596.06;;;2.52;100.00
68941;BME280;55982;51.476;7.552;2023-01-27T07:14:50;100606.47;;;2.55;100.00
68941;BME280;55982;51.476;7.552;2023-01-27T07:17:16;100596.94;;;2.53;100.00
68941;BME280;55982;51.476;7.552;2023-01-27T07:19:41;100599.63;;;2.60;100.00
68941;BME280;55982;51.476;7.552;2023-01-27T07:22:06;100612.47;;;2.56;100.00
68941;BME280;55982;51.476;7.552;2023-01-27T07:24:32;100612.44;;;2.53;100.00
68941;BME280;55982;51.476;7.552;2023-01-27T07:26:57;100614.25;;;2.60;100.00
68941;BME280;55982;51.476;7.552;2023-01-27T07:29:23;100608.16;;;2.55;100.00
68941;BME280;55982;51.476;7.552;2023-01-27T07:31:48;100621.91;;;2.54;100.00
68941;BME280;55982;51.476;7.552;2023-01-27T07:34:13;100612.53;;;2.62;100.00
68941;BME280;55982;51.476;7.552;2023-01-27T07:36:39;100613.41;;;2.61;100.00
68941;BME280;55982;51.476;7.552;2023-01-27T07:39:04;100619.41;;;2.60;100.00
68941;BME280;55982;51.476;7.552;2023-01-27T07:41:30;100620.28;;;2.62;100.00
68941;BME280;55982;51.476;7.552;2023-01-27T07:43:55;100612.59;;;2.65;100.00
68941;BME280;55982;51.476;7.552;2023-01-27T07:46:21;100606.53;;;2.63;100.00
68941;BME280;55982;51.476;7.552;2023-01-27T07:48:49;100616.06;;;2.67;100.00
68941;BME280;55982;51.476;7.552;2023-01-27T07:51:15;100622.06;;;2.66;100.00
68941;BME280;55982;51.476;7.552;2023-01-27T07:53:41;100614.31;;;2.66;100.00
68941;BME280;55982;51.476;7.552;2023-01-27T07:56:07;100612.63;;;2.71;100.00
68941;BME280;55982;51.476;7.552;2023-01-27T07:58:40;100624.78;;;2.78;100.00
68941;BME280;55982;51.476;7.552;2023-01-27T08:01:10;100623.03;;;2.77;100.00
68941;BME280;55982;51.476;7.552;2023-01-27T08:03:37;100620.44;;;2.72;100.00
68941;BME280;55982;51.476;7.552;2023-01-27T08:06:07;100624.78;;;2.78;100.00
68941;BME280;55982;51.476;7.552;2023-01-27T08:08:33;100622.16;;;2.75;100.00
68941;BME280;55982;51.476;7.552;2023-01-27T08:11:02;100630.84;;;2.78;100.00
68941;BME280;55982;51.476;7.552;2023-01-27T08:13:29;100635.16;;;2.83;100.00
68941;BME280;55982;51.476;7.552;2023-01-27T08:15:59;100635.22;;;2.87;100.00
68941;BME280;55982;51.476;7.552;2023-01-27T08:18:25;100630.03;;;2.84;100.00
68941;BME280;55982;51.476;7.552;2023-01-27T08:20:52;100630.94;;;2.89;100.00
68941;BME280;55982;51.476;7.552;2023-01-27T08:23:22;100633.50;;;2.89;100.00
68941;BME280;55982;51.476;7.552;2023-01-27T08:25:48;100627.59;;;2.98;100.00
68941;BME280;55982;51.476;7.552;2023-01-27T08:28:14;100639.56;;;2.93;100.00
68941;BME280;55982;51.476;7.552;2023-01-27T08:30:40;100637.88;;;2.93;100.00
68941;BME280;55982;51.476;7.552;2023-01-27T08:33:05;100642.16;;;2.94;100.00
68941;BME280;55982;51.476;7.552;2023-01-27T08:35:30;100643.88;;;2.92;100.00
68941;BME280;55982;51.476;7.552;2023-01-27T08:37:56;100639.59;;;2.94;100.00
68941;BME280;55982;51.476;7.552;2023-01-27T08:40:21;100638.81;;;3.01;100.00
68941;BME280;55982;51.476;7.552;2023-01-27T08:42:49;100639.66;;;3.00;100.00
68941;BME280;55982;51.476;7.552;2023-01-27T08:45:15;100644.00;;;3.04;100.00
68941;BME280;55982;51.476;7.552;2023-01-27T08:47:40;100641.41;;;3.03;100.00
68941;BME280;55982;51.476;7.552;2023-01-27T08:50:06;100644.00;;;3.04;100.00
68941;BME280;55982;51.476;7.552;2023-01-27T08:52:32;100650.97;;;3.11;100.00
68941;BME280;55982;51.476;7.552;2023-01-27T08:54:57;100654.41;;;3.07;100.00
68941;BME280;55982;51.476;7.552;2023-01-27T08:57:23;100652.72;;;3.15;100.00
68941;BME280;55982;51.476;7.552;2023-01-27T08:59:49;100651.88;;;3.15;100.00
68941;BME280;55982;51.476;7.552;2023-01-27T09:02:15;100652.72;;;3.12;100.00
68941;BME280;55982;51.476;7.552;2023-01-27T09:04:40;100664.00;;;3.19;100.00
68941;BME280;55982;51.476;7.552;2023-01-27T09:07:08;100664.00;;;3.20;100.00
68941;BME280;55982;51.476;7.552;2023-01-27T09:09:34;100668.41;;;3.30;100.00
68941;BME280;55982;51.476;7.552;2023-01-27T09:11:59;100670.06;;;3.22;100.00
68941;BME280;55982;51.476;7.552;2023-01-27T09:14:25;100671.84;;;3.29;100.00
68941;BME280;55982;51.476;7.552;2023-01-27T09:16:50;100673.53;;;3.27;100.00
68941;BME280;55982;51.476;7.552;2023-01-27T09:19:16;100679.53;;;3.22;100.00
68941;BME280;55982;51.476;7.552;2023-01-27T09:21:41;100682.19;;;3.29;100.00
68941;BME280;55982;51.476;7.552;2023-01-27T09:24:06;100677.00;;;3.26;100.00
68941;BME280;55982;51.476;7.552;2023-01-27T09:26:32;100689.03;;;3.24;100.00
68941;BME280;55982;51.476;7.552;2023-01-27T09:28:57;100690.75;;;3.25;100.00
68941;BME280;55982;51.476;7.552;2023-01-27T09:31:23;100694.22;;;3.24;100.00
68941;BME280;55982;51.476;7.552;2023-01-27T09:33:48;100692.50;;;3.26;100.00
68941;BME280;55982;51.476;7.552;2023-01-27T09:36:17;100694.28;;;3.33;100.00
68941;BME280;55982;51.476;7.552;2023-01-27T09:38:55;100699.44;;;3.30;100.00
68941;BME280;55982;51.476;7.552;2023-01-27T09:46:56;100701.16;;;3.31;100.00
68941;BME280;55982;51.476;7.552;2023-01-27T09:50:00;100702.06;;;3.35;100.00
68941;BME280;55982;51.476;7.552;2023-01-27T09:58:10;100702.09;;;3.38;100.00
68941;BME280;55982;51.476;7.552;2023-01-27T10:14:24;100714.31;;;3.52;100.00
68941;BME280;55982;51.476;7.552;2023-01-27T10:27:25;100716.81;;;3.46;100.00
68941;BME280;55982;51.476;7.552;2023-01-27T10:30:03;100716.81;;;3.43;100.00
68941;BME280;55982;51.476;7.552;2023-01-27T10:32:44;100720.28;;;3.48;100.00
68941;BME280;55982;51.476;7.552;2023-01-27T10:35:17;100717.63;;;3.41;100.00
68941;BME280;55982;51.476;7.552;2023-01-27T10:45:29;100715.13;;;3.48;100.00
68941;BME280;55982;51.476;7.552;2023-01-27T10:48:19;100712.59;;;3.54;100.00
68941;BME280;55982;51.476;7.552;2023-01-27T10:50:59;100720.38;;;3.56;100.00
68941;BME280;55982;51.476;7.552;2023-01-27T10:53:48;100711.78;;;3.58;100.00
68941;BME280;55982;51.476;7.552;2023-01-27T10:56:40;100718.59;;;3.52;100.00
68941;BME280;55982;51.476;7.552;2023-01-27T10:59:21;100710.91;;;3.56;100.00
68941;BME280;55982;51.476;7.552;2023-01-27T11:01:57;100714.34;;;3.57;100.00
68941;BME280;55982;51.476;7.552;2023-01-27T11:07:17;100713.59;;;3.68;100.00
68941;BME280;55982;51.476;7.552;2023-01-27T11:10:02;100699.66;;;3.54;100.00
68941;BME280;55982;51.476;7.552;2023-01-27T11:12:32;100713.47;;;3.56;100.00
68941;BME280;55982;51.476;7.552;2023-01-27T11:15:00;100710.00;;;3.54;100.00
68941;BME280;55982;51.476;7.552;2023-01-27T11:17:44;100698.72;;;3.45;100.00
68941;BME280;55982;51.476;7.552;2023-01-27T11:22:49;100702.31;;;3.60;100.00
68941;BME280;55982;51.476;7.552;2023-01-27T11:30:43;100692.91;;;3.71;100.00
68941;BME280;55982;51.476;7.552;2023-01-27T11:33:26;100692.97;;;3.81;100.00
68941;BME280;55982;51.476;7.552;2023-01-27T11:35:53;100705.09;;;3.85;100.00
68941;BME280;55982;51.476;7.552;2023-01-27T11:38:21;100694.66;;;3.72;100.00
68941;BME280;55982;51.476;7.552;2023-01-27T11:40:49;100697.25;;;3.72;100.00
68941;BME280;55982;51.476;7.552;2023-01-27T11:43:23;100699.91;;;3.80;100.00
68941;BME280;55982;51.476;7.552;2023-01-27T11:45:59;100695.53;;;3.75;100.00
68941;BME280;55982;51.476;7.552;2023-01-27T11:48:36;100694.69;;;3.76;100.00
68941;BME280;55982;51.476;7.552;2023-01-27T11:51:12;100694.75;;;3.85;100.00
68941;BME280;55982;51.476;7.552;2023-01-27T11:53:40;100697.38;;;3.86;100.00
68941;BME280;55982;51.476;7.552;2023-01-27T11:56:16;100697.22;;;3.71;100.00
68941;BME280;55982;51.476;7.552;2023-01-27T11:59:05;100700.63;;;3.64;100.00
68941;BME280;55982;51.476;7.552;2023-01-27T12:01:45;100698.97;;;3.72;100.00
68941;BME280;55982;51.476;7.552;2023-01-27T12:04:21;100687.66;;;3.62;100.00
68941;BME280;55982;51.476;7.552;2023-01-27T12:06:50;100692.03;;;3.68;100.00
68941;BME280;55982;51.476;7.552;2023-01-27T12:14:52;100679.16;;;3.79;100.00
68941;BME280;55982;51.476;7.552;2023-01-27T12:19:52;100684.34;;;3.79;100.00
68941;BME280;55982;51.476;7.552;2023-01-27T12:22:26;100687.78;;;3.75;100.00
68941;BME280;55982;51.476;7.552;2023-01-27T12:24:56;100684.31;;;3.76;100.00
68941;BME280;55982;51.476;7.552;2023-01-27T12:27:25;100684.31;;;3.76;100.00
68941;BME280;55982;51.476;7.552;2023-01-27T12:30:03;100669.72;;;3.82;100.00
68941;BME280;55982;51.476;7.552;2023-01-27T12:34:59;100668.84;;;3.85;100.00
68941;BME280;55982;51.476;7.552;2023-01-27T12:37:30;100670.56;;;3.80;100.00
68941;BME280;55982;51.476;7.552;2023-01-27T12:40:02;100667.09;;;3.81;100.00
68941;BME280;55982;51.476;7.552;2023-01-27T12:42:43;100672.38;;;3.90;100.00
68941;BME280;55982;51.476;7.552;2023-01-27T12:50:23;100661.13;;;3.88;100.00
68941;BME280;55982;51.476;7.552;2023-01-27T12:53:19;100662.75;;;3.77;100.00
68941;BME280;55982;51.476;7.552;2023-01-27T13:00:54;100672.28;;;3.81;100.00
68941;BME280;55982;51.476;7.552;2023-01-27T13:03:20;100668.81;;;3.79;100.00
68941;BME280;55982;51.476;7.552;2023-01-27T13:05:46;100672.22;;;3.71;100.00
68941;BME280;55982;51.476;7.552;2023-01-27T13:08:17;100673.03;;;3.69;100.00
68941;BME280;55982;51.476;7.552;2023-01-27T13:10:52;100669.66;;;3.75;100.00
68941;BME280;55982;51.476;7.552;2023-01-27T13:13:29;100677.38;;;3.68;100.00
68941;BME280;55982;51.476;7.552;2023-01-27T13:18:35;100674.84;;;3.75;100.00
68941;BME280;55982;51.476;7.552;2023-01-27T13:21:12;100672.16;;;3.62;100.00
68941;BME280;55982;51.476;7.552;2023-01-27T13:23:39;100680.91;;;3.80;100.00
68941;BME280;55982;51.476;7.552;2023-01-27T13:31:13;100673.03;;;3.67;100.00
68941;BME280;55982;51.476;7.552;2023-01-27T13:39:05;100683.25;;;3.49;100.00
68941;BME280;55982;51.476;7.552;2023-01-27T13:41:41;100686.69;;;3.50;100.00
68941;BME280;55982;51.476;7.552;2023-01-27T13:44:18;100688.31;;;3.39;100.00
68941;BME280;55982;51.476;7.552;2023-01-27T13:46:47;100689.19;;;3.42;100.00
68941;BME280;55982;51.476;7.552;2023-01-27T13:49:36;100684.03;;;3.42;100.00
68941;BME280;55982;51.476;7.552;2023-01-27T13:52:04;100688.38;;;3.45;100.00
68941;BME280;55982;51.476;7.552;2023-01-27T13:54:30;100689.31;;;3.54;100.00
68941;BME280;55982;51.476;7.552;2023-01-27T13:59:34;100697.00;;;3.45;100.00
68941;BME280;55982;51.476;7.552;2023-01-27T14:04:56;100708.25;;;3.50;100.00
68941;BME280;55982;51.476;7.552;2023-01-27T14:07:42;100707.34;;;3.45;100.00
68941;BME280;55982;51.476;7.552;2023-01-27T14:10:37;100703.06;;;3.47;100.00
68941;BME280;55982;51.476;7.552;2023-01-27T14:15:57;100707.34;;;3.47;100.00
68941;BME280;55982;51.476;7.552;2023-01-27T14:18:33;100706.53;;;3.52;100.00
68941;BME280;55982;51.476;7.552;2023-01-27T14:32:08;100710.78;;;3.46;100.00
68941;BME280;55982;51.476;7.552;2023-01-27T14:34:55;100707.34;;;3.47;100.00
68941;BME280;55982;51.476;7.552;2023-01-27T14:37:43;100704.84;;;3.54;100.00
68941;BME280;55982;51.476;7.552;2023-01-27T14:40:26;100710.03;;;3.57;100.00
68941;BME280;55982;51.476;7.552;2023-01-27T14:43:03;100704.84;;;3.57;100.00
68941;BME280;55982;51.476;7.552;2023-01-27T14:45:39;100699.59;;;3.48;100.00
68941;BME280;55982;51.476;7.552;2023-01-27T14:51:38;100698.75;;;3.49;100.00
68941;BME280;55982;51.476;7.552;2023-01-27T14:54:39;100707.44;;;3.57;100.00
68941;BME280;55982;51.476;7.552;2023-01-27T14:57:24;100704.75;;;3.45;100.00
68941;BME280;55982;51.476;7.552;2023-01-27T15:00:19;100709.94;;;3.48;100.00
68941;BME280;55982;51.476;7.552;2023-01-27T15:05:57;100712.44;;;3.38;100.00
68941;BME280;55982;51.476;7.552;2023-01-27T15:08:31;100711.59;;;3.40;100.00
68941;BME280;55982;51.476;7.552;2023-01-27T15:19:18;100733.97;;;3.38;100.00